** WINDWAARNEMINGEN GEBEUREN SINDS 9-01-2018 OP 9 - 10M HOOGTE**
** ONZE WEBSITE WORDT BINNENKORT VOLLEDIG VERNIEUWD!! U KAN DEZE AL HIER AL TESTEN **
Onweer van: 22-04-2018 07:59 tot: 21:59 waarschuwing voor: Onweer niveau: Geel info button

Weercam te Izegem Meer informatie Weercam te Izegem


Lokaal brand risico:
FWI


Regionaal brand risico: Meer informatie



METAR rapporten vliegvelden

   
EBOS - Oostende Airport, Belgium
Afstand tot: NW 39 km
Gewijzigd: 22-04-2018 08:20
Licht bewolkt  
Licht bewolkt  
   Wind: OZO 5.6 km/h
Wind: OZO 5.6 km/h
Temperatuur: 15°C
Dauwpunt: 11°C
Vochtigheid: 77%
Barometer: 1011 hPa
Bewolking: Few Clouds
Zicht: 6 km
Bewolking: Licht bewolkt 6000 ft
EBOS 220620Z 12003KT 6000 FEW060CB 15/11 Q1011 TEMPO 4000 TSRA
LFQQ - Lille/Lesquin, France
Afstand tot: Z 40 km
Gewijzigd: 22-04-2018 08:30
Nevel, Gedeeltelijk bewolkt  
Nevel, Gedeeltelijk bewolkt  
   Wind: ZO 9.3 km/h
Wind: ZO 9.3 km/h
Temperatuur: 14°C
Dauwpunt: 12°C
Vochtigheid: 88%
Barometer: 1012 hPa
Bewolking: Partly Cloudy
Zicht: 4 km
Bewolking: Gedeeltelijk bewolkt ft
LFQQ 220630Z AUTO 14005KT 3600 BR NSC 14/12 Q1012 TEMPO 26020G30KT BKN060CB BECMG 9999 NSW
EBFN - Koksijde (bel-Af, Belgium
Afstand tot: WNW 43 km
Gewijzigd: 22-04-2018 08:25
Gedeeltelijk bewolkt  
Gedeeltelijk bewolkt  
   Wind: ZO 7.4 km/h
Wind: ZO 7.4 km/h
Temperatuur: 15°C
Dauwpunt: 12°C
Vochtigheid: 82%
Barometer: 1011 hPa
Bewolking: Partly Cloudy
Zicht: 7 km
Bewolking: Gedeeltelijk bewolkt 11000 ft
EBFN 220625Z AUTO 13004KT 7000 SCT110/// 15/12 Q1011 WHT
EBCV - Chievres Ab, Belgium
Afstand tot: ZO 59 km
Gewijzigd: 22-04-2018 08:25
Nevel, Licht bewolkt  
Nevel, Licht bewolkt  
   Wind: ZO 7.4 km/h
Wind: ZO 7.4 km/h
Temperatuur: 14°C
Dauwpunt: 12°C
Vochtigheid: 88%
Barometer: 1013 hPa
Bewolking: Few Clouds
Zicht: 3 km
Bewolking: Licht bewolkt 7500 ft
EBCV 220625Z AUTO 13004KT 3300 BR FEW075/// 14/12 Q1013 YLO
EHFS - Vlissingen, Netherlands
Afstand tot: NNO 65 km
Gewijzigd: 22-04-2018 08:25
Gedeeltelijk bewolkt  
Gedeeltelijk bewolkt  
   Wind: OZO 14.8 km/h
Wind: OZO 14.8 km/h
Temperatuur: 12°C
Dauwpunt: 10°C
Vochtigheid: 88%
Barometer: 1012 hPa
Bewolking: Partly Cloudy
Zicht: meer dan 10 km
Bewolking: Gedeeltelijk bewolkt ft
EHFS 220625Z AUTO 12008KT 9999 NSC 12/10 Q1012 W///H///
EBBR - Brussels Nationa, Belgium
Afstand tot: O 91 km
Gewijzigd: 22-04-2018 08:20
Gedeeltelijk bewolkt  
Gedeeltelijk bewolkt  
   Wind: ZZW 9.3 km/h
Wind: ZZW 9.3 km/h
Temperatuur: 15°C
Dauwpunt: 12°C
Vochtigheid: 82%
Barometer: 1013 hPa
Bewolking: Partly Cloudy
Zicht: 9 km
Bewolking: Gedeeltelijk bewolkt ft
EBBR 220620Z 20005KT 9000 NSC 15/12 Q1013 NOSIG
EBAW - Antwerp/Deurne, Belgium
Afstand tot: ONO 94 km
Gewijzigd: 22-04-2018 08:20
Gedeeltelijk bewolkt  
Gedeeltelijk bewolkt  
   Wind: varieert 3.7 km/h
Wind: varieert 3.7 km/h
Temperatuur: 14°C
Dauwpunt: 10°C
Vochtigheid: 77%
Barometer: 1013 hPa
Bewolking: Partly Cloudy
Zicht: 8 km
Bewolking: Gedeeltelijk bewolkt ft
EBAW 220620Z VRB02KT 8000 NSC 14/10 Q1013 NOSIG
EHWO - Woensdrecht Rnla, Netherlands
Afstand tot: NO 98 km
Gewijzigd: 22-04-2018 08:25
Grotendeels bewolkt  
Grotendeels bewolkt  
   Wind: ONO 7.4 km/h
Wind: ONO 7.4 km/h
Temperatuur: 14°C
Dauwpunt: 10°C
Vochtigheid: 77%
Barometer: 1012 hPa
Bewolking: Mostly Cloudy
Zicht: meer dan 10 km
Bewolking: Grotendeels bewolkt 17000 ft,
Grotendeels bewolkt 23000 ft
EHWO 220625Z AUTO 07004KT 9999 BKN170 BKN230 14/10 Q1012 BLU
EBCI - Charleroi/Gossel, Belgium
Afstand tot: OZO 102 km
Gewijzigd: 22-04-2018 08:20
Licht bewolkt  
Licht bewolkt  
   Wind: ZW 7.4 km/h
Wind: ZW 7.4 km/h
Temperatuur: 15°C
Dauwpunt: 11°C
Vochtigheid: 77%
Barometer: 1014 hPa
Bewolking: Few Clouds
Zicht: meer dan 10 km
Bewolking: Licht bewolkt 2000 ft
EBCI 220620Z 23004KT 9999 FEW020 15/11 Q1014 TEMPO 4000 -TSRA

Script ontwikkeld door  Saratoga-weather.org Aangepast voor de template door  Weerstation Leuven